Time;durP1;ratioP1;P1;durP2;ratioP2;P2;SDS_P1;SDS_P2;PMS_P1;PMS_P2;Temp;Humidity;BMP_temperature;BMP_pressure;BME280_temperature;BME280_humidity;BME280_pressure;Samples;Min_cycle;Max_cycle;Signal;HPM_P1;HPM_P2
2022/05/03 00:00:20;;;;;;;8.02;5.15;;;;;;;;;;5052046;28;20052;-60
2022/05/03 00:02:53;;;;;;;5.13;4.55;;;;;;;;;;5051632;28;20045;-60
2022/05/03 00:05:40;;;;;;;7.13;5.32;;;5.70;99.90;;;;;;5051553;28;20045;-60
2022/05/03 00:08:27;;;;;;;6.15;5.55;;;5.70;99.90;;;;;;5053222;28;20399;-60
2022/05/03 00:11:15;;;;;;;6.50;4.93;;;5.70;99.90;;;;;;5056203;28;20049;-60
2022/05/03 00:14:03;;;;;;;5.50;4.80;;;5.90;99.90;;;;;;5055428;28;20380;-61
2022/05/03 00:16:30;;;;;;;5.80;4.53;;;;;;;;;;5052941;28;20045;-60
2022/05/03 00:18:56;;;;;;;7.13;4.78;;;5.60;99.90;;;;;;5056675;28;20049;-60
2022/05/03 00:21:22;;;;;;;7.03;4.90;;;;;;;;;;5056541;28;20048;-60
2022/05/03 00:23:48;;;;;;;8.93;5.53;;;5.50;99.90;;;;;;5055089;28;20079;-60
2022/05/03 00:26:14;;;;;;;7.43;5.50;;;5.50;99.90;;;;;;5055013;28;20130;-58
2022/05/03 00:28:42;;;;;;;7.05;5.47;;;5.50;99.90;;;;;;5055386;28;20037;-60
2022/05/03 00:31:08;;;;;;;5.35;4.55;;;;;;;;;;5071776;28;20052;-60
2022/05/03 00:33:34;;;;;;;7.00;5.28;;;5.50;99.90;;;;;;5055068;28;20060;-59
2022/05/03 00:36:00;;;;;;;8.10;6.00;;;5.60;99.90;;;;;;5054827;28;20437;-59
2022/05/03 00:38:26;;;;;;;9.00;5.38;;;5.60;99.90;;;;;;5054874;28;20515;-60
2022/05/03 00:40:59;;;;;;;7.75;6.00;;;5.70;99.90;;;;;;5055001;28;20048;-60
2022/05/03 00:44:02;;;;;;;11.20;6.25;;;5.60;99.90;;;;;;5054843;28;20041;-60
2022/05/03 00:46:43;;;;;;;10.30;7.22;;;5.50;99.90;;;;;;5040419;28;20470;-60
2022/05/03 00:49:28;;;;;;;8.07;5.68;;;;;;;;;;5056076;28;20498;-60
2022/05/03 00:52:07;;;;;;;7.47;5.30;;;5.60;99.90;;;;;;5056202;28;20033;-58
2022/05/03 00:55:18;;;;;;;6.28;4.90;;;5.50;99.90;;;;;;5054518;28;20290;-59
2022/05/03 00:58:00;;;;;;;7.15;5.97;;;5.30;99.90;;;;;;5035100;28;20406;-60
2022/05/03 01:00:26;;;;;;;7.20;6.38;;;5.50;99.90;;;;;;5056291;28;20116;-60
2022/05/03 01:03:09;;;;;;;8.57;6.55;;;5.50;99.90;;;;;;5055560;28;20055;-59
2022/05/03 01:05:44;;;;;;;9.18;6.63;;;;;;;;;;5054648;28;20045;-60
2022/05/03 01:08:20;;;;;;;8.82;7.13;;;5.30;99.90;;;;;;5055750;28;20445;-60
2022/05/03 01:11:12;;;;;;;9.75;6.40;;;5.50;99.90;;;;;;5054886;28;20079;-60
2022/05/03 01:13:47;;;;;;;8.10;5.95;;;5.60;99.90;;;;;;5054737;28;20048;-59
2022/05/03 01:16:26;;;;;;;7.15;5.60;;;5.40;99.90;;;;;;5054331;28;20041;-60
2022/05/03 01:19:33;;;;;;;11.70;6.45;;;5.40;99.90;;;;;;5054667;28;20084;-59
2022/05/03 01:22:14;;;;;;;8.48;6.38;;;;;;;;;;5054305;28;20162;-60
2022/05/03 01:25:04;;;;;;;7.93;5.85;;;5.00;99.90;;;;;;5054044;28;20060;-60
2022/05/03 01:28:16;;;;;;;7.28;5.25;;;5.20;99.90;;;;;;5054489;28;20045;-60
2022/05/03 01:30:47;;;;;;;9.02;5.40;;;5.00;99.90;;;;;;5013571;28;20048;-60
2022/05/03 01:33:16;;;;;;;7.90;5.63;;;;;;;;;;5048629;28;20056;-60
2022/05/03 01:35:49;;;;;;;9.05;6.40;;;5.10;99.90;;;;;;5053935;28;20407;-60
2022/05/03 01:38:28;;;;;;;7.13;5.57;;;5.00;99.90;;;;;;5055348;28;20073;-60
2022/05/03 01:41:14;;;;;;;8.88;5.97;;;;;;;;;;5053799;28;20407;-60
2022/05/03 01:43:47;;;;;;;8.27;5.90;;;5.00;99.90;;;;;;5043501;28;20080;-59
2022/05/03 01:46:22;;;;;;;8.80;7.22;;;;;;;;;;5055432;28;20037;-60
2022/05/03 01:51:46;;;;;;;6.55;5.28;;;;;;;;;;5056604;28;20049;-60
2022/05/03 01:54:26;;;;;;;7.60;5.32;;;4.60;99.90;;;;;;5054156;28;20087;-60
2022/05/03 01:57:00;;;;;;;7.47;5.40;;;4.80;99.90;;;;;;5054026;28;20536;-59
2022/05/03 01:59:57;;;;;;;8.10;6.35;;;4.80;99.90;;;;;;5054067;28;20041;-60
2022/05/03 02:02:30;;;;;;;10.10;6.70;;;;;;;;;;5054720;28;20112;-59
2022/05/03 02:05:03;;;;;;;10.05;7.30;;;4.60;99.90;;;;;;5046887;28;20130;-59
2022/05/03 02:07:52;;;;;;;9.55;7.57;;;4.50;99.90;;;;;;5055125;28;20037;-59
2022/05/03 02:10:33;;;;;;;9.82;6.97;;;4.60;99.90;;;;;;5036943;28;20052;-59
2022/05/03 02:13:17;;;;;;;11.65;7.32;;;4.40;99.90;;;;;;5053406;28;20053;-60
2022/05/03 02:15:48;;;;;;;8.10;6.25;;;4.70;99.90;;;;;;5054248;28;20048;-60
2022/05/03 02:18:58;;;;;;;10.45;7.63;;;4.50;99.90;;;;;;5036979;28;20059;-59
2022/05/03 02:21:41;;;;;;;11.32;7.82;;;4.50;99.90;;;;;;5012441;28;20524;-60
2022/05/03 02:24:30;;;;;;;9.20;7.20;;;4.60;99.90;;;;;;5051224;28;20049;-61
2022/05/03 02:27:08;;;;;;;10.30;6.93;;;4.40;99.90;;;;;;5054520;28;20056;-59
2022/05/03 02:29:40;;;;;;;10.10;6.93;;;;;;;;;;5052881;28;20040;-59
2022/05/03 02:32:11;;;;;;;8.02;6.03;;;;;;;;;;5069143;28;20440;-60
2022/05/03 02:38:21;;;;;;;7.57;5.70;;;;;;;;;;5055712;28;20438;-58
2022/05/03 02:40:52;;;;;;;7.72;5.97;;;3.90;99.90;;;;;;5069551;28;20126;-59
2022/05/03 02:43:20;;;;;;;6.10;5.30;;;4.10;99.90;;;;;;5052435;28;20051;-59
2022/05/03 02:46:30;;;;;;;7.75;6.30;;;4.20;99.90;;;;;;5036267;28;20533;-61
2022/05/03 02:49:02;;;;;;;6.40;5.63;;;;;;;;;;5015154;28;20037;-59
2022/05/03 02:51:36;;;;;;;9.70;6.88;;;4.10;99.90;;;;;;5051583;28;20415;-60
2022/05/03 02:54:22;;;;;;;8.82;6.93;;;4.20;99.90;;;;;;5054325;28;20040;-60
2022/05/03 02:57:09;;;;;;;9.10;6.35;;;4.00;99.90;;;;;;5052433;28;20102;-60
2022/05/03 03:03:00;;;;;;;11.98;7.85;;;4.00;99.90;;;;;;5053785;28;20382;-58
2022/05/03 03:05:29;;;;;;;10.45;7.38;;;4.00;99.90;;;;;;5052667;28;20060;-59
2022/05/03 03:08:02;;;;;;;8.18;6.75;;;3.90;99.90;;;;;;5053603;28;20521;-60
2022/05/03 03:10:50;;;;;;;10.20;7.25;;;4.00;99.90;;;;;;5052395;28;20131;-59
2022/05/03 03:13:19;;;;;;;10.77;7.30;;;;;;;;;;5068934;28;20498;-60
2022/05/03 03:15:45;;;;;;;11.20;7.43;;;;;;;;;;5053125;28;20107;-59
2022/05/03 03:18:17;;;;;;;13.32;7.88;;;4.10;99.90;;;;;;5051821;28;20056;-60
2022/05/03 03:20:53;;;;;;;9.85;7.22;;;4.20;99.90;;;;;;5052375;28;20041;-59
2022/05/03 03:23:24;;;;;;;8.43;6.70;;;4.00;99.90;;;;;;5052114;28;20487;-59
2022/05/03 03:25:50;;;;;;;9.02;7.43;;;4.10;99.90;;;;;;5052909;28;20037;-58
2022/05/03 03:28:20;;;;;;;10.60;7.55;;;4.10;99.90;;;;;;5052303;28;20545;-59
2022/05/03 03:30:47;;;;;;;9.80;6.95;;;;;;;;;;5052206;28;20129;-60
2022/05/03 03:33:14;;;;;;;10.82;7.35;;;4.10;99.90;;;;;;5051711;28;20044;-59
2022/05/03 03:35:42;;;;;;;7.25;6.13;;;4.10;99.90;;;;;;5051708;28;20052;-60
2022/05/03 03:38:10;;;;;;;10.18;6.50;;;4.10;99.90;;;;;;5053116;28;20501;-59
2022/05/03 03:40:36;;;;;;;7.80;6.40;;;4.10;99.90;;;;;;5051871;28;20040;-58
2022/05/03 03:43:01;;;;;;;9.75;7.15;;;4.20;99.90;;;;;;5051656;28;20114;-57
2022/05/03 03:45:27;;;;;;;8.93;7.10;;;4.10;99.90;;;;;;5054391;28;20045;-59
2022/05/03 03:47:55;;;;;;;6.38;5.75;;;4.00;99.90;;;;;;5057152;28;20111;-59
2022/05/03 03:50:22;;;;;;;8.13;6.55;;;3.90;99.90;;;;;;5056969;28;20048;-59
2022/05/03 03:52:49;;;;;;;10.93;7.22;;;;;;;;;;5057117;28;20169;-60
2022/05/03 03:55:14;;;;;;;9.45;6.85;;;4.00;99.90;;;;;;5057169;28;20048;-60
2022/05/03 03:57:41;;;;;;;11.02;7.70;;;4.20;99.90;;;;;;5057320;28;20049;-59
2022/05/03 04:00:11;;;;;;;9.63;7.75;;;;;;;;;;5057100;28;20043;-59
2022/05/03 04:02:37;;;;;;;13.70;8.82;;;4.30;99.90;;;;;;5054499;28;20044;-59
2022/05/03 04:05:04;;;;;;;10.93;7.53;;;;;;;;;;5072470;28;20041;-58
2022/05/03 04:07:29;;;;;;;11.90;7.78;;;4.20;99.90;;;;;;5057097;28;20040;-60
2022/05/03 04:09:55;;;;;;;10.00;6.90;;;4.30;99.90;;;;;;5038929;28;20037;-59
2022/05/03 04:12:21;;;;;;;12.25;7.68;;;;;;;;;;5055957;28;20059;-60
2022/05/03 04:14:47;;;;;;;10.50;7.95;;;;;;;;;;5072566;28;20106;-59
2022/05/03 04:17:13;;;;;;;12.18;8.93;;;;;;;;;;5055437;28;20515;-59
2022/05/03 04:19:39;;;;;;;11.55;8.63;;;4.60;99.90;;;;;;5072148;28;20091;-60
2022/05/03 04:22:29;;;;;;;10.68;8.38;;;4.70;99.90;;;;;;5053526;28;20029;-59
2022/05/03 04:24:55;;;;;;;12.05;8.52;;;4.80;99.90;;;;;;5055022;28;20103;-59
2022/05/03 04:27:21;;;;;;;10.18;8.13;;;4.80;99.90;;;;;;5056448;28;20058;-59
2022/05/03 04:29:50;;;;;;;14.05;8.68;;;4.90;99.90;;;;;;5056417;28;20112;-59
2022/05/03 04:32:17;;;;;;;11.65;9.10;;;;;;;;;;5052279;28;20040;-60
2022/05/03 04:34:43;;;;;;;11.45;8.50;;;;;;;;;;5053578;28;20049;-60
2022/05/03 04:37:09;;;;;;;10.75;7.70;;;;;;;;;;5068369;28;20094;-60
2022/05/03 04:39:35;;;;;;;14.70;9.63;;;;;;;;;;5049185;28;20037;-60
2022/05/03 04:42:01;;;;;;;15.68;8.93;;;;;;;;;;5030828;28;20041;-59
2022/05/03 04:44:27;;;;;;;22.65;9.18;;;;;;;;;;5031614;28;20045;-60
2022/05/03 04:46:53;;;;;;;13.75;9.85;;;;;;;;;;5050677;28;20063;-61
2022/05/03 04:49:19;;;;;;;19.58;10.30;;;;;;;;;;5051501;28;20052;-61
2022/05/03 04:51:45;;;;;;;12.98;9.55;;;;;;;;;;5052649;28;20064;-59
2022/05/03 04:54:11;;;;;;;14.60;9.32;;;5.60;99.90;;;;;;5052785;28;20099;-61
2022/05/03 04:56:37;;;;;;;12.60;9.38;;;;;;;;;;5052608;28;20045;-60
2022/05/03 04:59:03;;;;;;;14.27;8.07;;;5.70;99.90;;;;;;5052786;28;20041;-60
2022/05/03 05:01:29;;;;;;;14.30;9.32;;;5.80;99.90;;;;;;5067434;28;20048;-61
2022/05/03 05:03:54;;;;;;;12.38;9.63;;;5.90;99.90;;;;;;5041830;28;20044;-61
2022/05/03 05:06:20;;;;;;;14.75;11.02;;;5.90;99.90;;;;;;5048829;28;20062;-61
2022/05/03 05:08:46;;;;;;;14.88;10.43;;;;;;;;;;5050000;28;20041;-62
2022/05/03 05:11:12;;;;;;;16.23;12.07;;;;;;;;;;5051236;28;20036;-62
2022/05/03 05:13:39;;;;;;;17.15;12.45;;;6.20;99.90;;;;;;5066818;28;20029;-61
2022/05/03 05:16:06;;;;;;;17.33;12.25;;;;;;;;;;5050695;28;20439;-61
2022/05/03 05:18:32;;;;;;;21.10;12.68;;;;;;;;;;5046261;28;20095;-61
2022/05/03 05:20:58;;;;;;;23.38;12.38;;;;;;;;;;5047486;28;20081;-61
2022/05/03 05:23:24;;;;;;;21.33;13.65;;;;;;;;;;5032131;28;20530;-61
2022/05/03 05:25:51;;;;;;;20.02;13.80;;;;;;;;;;5064872;28;20049;-62
2022/05/03 05:28:18;;;;;;;17.60;12.45;;;;;;;;;;5051864;28;20323;-62
2022/05/03 05:30:45;;;;;;;20.83;14.15;;;;;;;;;;5051157;28;20449;-61
2022/05/03 05:33:11;;;;;;;19.83;14.35;;;;;;;;;;5050829;28;20045;-61
2022/05/03 05:35:37;;;;;;;20.77;13.95;;;;;;;;;;5050857;28;20479;-62
2022/05/03 05:38:03;;;;;;;18.23;12.60;;;7.00;99.90;;;;;;5067021;28;20043;-62
2022/05/03 05:40:29;;;;;;;18.63;13.65;;;6.80;99.90;;;;;;5051837;28;20055;-62
2022/05/03 05:42:55;;;;;;;22.55;14.70;;;7.00;99.90;;;;;;5051903;28;20045;-61
2022/05/03 05:45:21;;;;;;;25.95;16.13;;;;;;;;;;5051797;28;20525;-62
2022/05/03 05:47:47;;;;;;;23.23;14.35;;;;;;;;;;5050462;28;20078;-61
2022/05/03 05:50:13;;;;;;;23.40;15.55;;;;;;;;;;5048773;28;20514;-62
2022/05/03 05:55:24;;;;;;;22.13;14.80;;;;;;;;;;5050393;28;20052;-62
2022/05/03 05:57:50;;;;;;;26.30;16.55;;;;;;;;;;5050524;28;20491;-61
2022/05/03 06:00:18;;;;;;;22.25;14.73;;;;;;;;;;5050272;28;20055;-61
2022/05/03 06:02:44;;;;;;;22.42;14.68;;;;;;;;;;5051456;28;20072;-62
2022/05/03 06:05:10;;;;;;;21.85;15.45;;;;;;;;;;5051493;28;20083;-62
2022/05/03 06:07:35;;;;;;;18.92;14.20;;;7.40;99.90;;;;;;5049430;28;20041;-62
2022/05/03 06:10:01;;;;;;;21.98;15.30;;;7.50;99.90;;;;;;5051454;28;20040;-62
2022/05/03 06:12:27;;;;;;;20.52;14.77;;;;;;;;;;5044840;28;20064;-62
2022/05/03 06:14:53;;;;;;;24.55;16.58;;;;;;;;;;5030000;28;20085;-62
2022/05/03 06:17:19;;;;;;;20.98;15.02;;;7.70;99.90;;;;;;5031168;28;20095;-62
2022/05/03 06:19:45;;;;;;;25.75;15.20;;;7.80;99.90;;;;;;5034679;28;20040;-62
2022/05/03 06:22:10;;;;;;;20.95;15.07;;;7.80;99.90;;;;;;5046360;28;20049;-62
2022/05/03 06:24:38;;;;;;;20.85;15.07;;;;;;;;;;5028359;28;20511;-63
2022/05/03 06:27:04;;;;;;;23.33;15.43;;;7.80;99.90;;;;;;5027489;28;20056;-63
2022/05/03 06:29:32;;;;;;;24.55;16.08;;;;;;;;;;5026472;28;20037;-63
2022/05/03 06:32:01;;;;;;;24.00;16.02;;;8.00;99.90;;;;;;5027275;28;20049;-63
2022/05/03 06:34:27;;;;;;;20.55;14.23;;;;;;;;;;5025206;28;20059;-62
2022/05/03 06:36:53;;;;;;;21.00;14.93;;;;;;;;;;5041211;28;20080;-62
2022/05/03 06:39:19;;;;;;;28.08;17.48;;;8.10;99.90;;;;;;5041125;28;20099;-63
2022/05/03 06:41:45;;;;;;;27.30;17.42;;;;;;;;;;5024908;28;20045;-62
2022/05/03 06:44:13;;;;;;;26.10;17.77;;;;;;;;;;5041485;28;20041;-62
2022/05/03 06:46:39;;;;;;;26.73;17.67;;;;;;;;;;5061136;28;20060;-62
2022/05/03 06:49:05;;;;;;;24.55;17.27;;;8.30;99.90;;;;;;5049418;28;20491;-62
2022/05/03 06:51:30;;;;;;;28.67;19.10;;;8.30;99.90;;;;;;5050725;28;20040;-62
2022/05/03 06:53:57;;;;;;;27.27;18.75;;;8.30;99.90;;;;;;5053504;28;20048;-62
2022/05/03 06:56:22;;;;;;;35.78;21.23;;;8.30;99.90;;;;;;5050164;28;20411;-62
2022/05/03 06:58:48;;;;;;;32.35;21.33;;;8.30;99.90;;;;;;5051936;28;20045;-62
2022/05/03 07:01:15;;;;;;;34.58;20.48;;;8.30;99.90;;;;;;5053219;28;20041;-62
2022/05/03 07:03:42;;;;;;;36.45;21.90;;;8.30;99.90;;;;;;5053375;28;20044;-62
2022/05/03 07:06:08;;;;;;;42.10;21.88;;;8.40;99.90;;;;;;5053454;28;20087;-62
2022/05/03 07:08:35;;;;;;;47.22;23.45;;;8.50;99.90;;;;;;5052009;28;20048;-62
2022/05/03 07:11:00;;;;;;;55.80;28.92;;;8.60;99.90;;;;;;5053176;28;20051;-62
2022/05/03 07:13:26;;;;;;;56.47;27.83;;;8.60;99.90;;;;;;5053035;28;20123;-62
2022/05/03 07:15:57;;;;;;;65.90;30.55;;;8.50;99.90;;;;;;5052829;28;20053;-62
2022/05/03 07:23:53;;;;;;;57.47;29.00;;;8.70;99.90;;;;;;5053069;28;20291;-62
2022/05/03 07:26:19;;;;;;;48.33;25.85;;;8.80;99.90;;;;;;5052854;28;20271;-62
2022/05/03 07:28:48;;;;;;;53.40;29.17;;;8.80;99.90;;;;;;5053139;28;20033;-62
2022/05/03 07:31:15;;;;;;;55.08;28.70;;;8.80;99.90;;;;;;5052007;28;20044;-62
2022/05/03 07:33:40;;;;;;;52.70;28.95;;;8.90;99.90;;;;;;5053139;28;20045;-62
2022/05/03 07:36:06;;;;;;;53.38;28.10;;;8.90;99.90;;;;;;5052952;28;20133;-62
2022/05/03 07:38:32;;;;;;;49.75;25.05;;;8.90;99.90;;;;;;5052840;28;20029;-62
2022/05/03 07:40:57;;;;;;;43.17;23.65;;;9.00;99.90;;;;;;5052627;28;20039;-62
2022/05/03 07:43:23;;;;;;;34.17;19.90;;;9.00;99.90;;;;;;5052873;28;20446;-62
2022/05/03 07:45:49;;;;;;;27.95;17.70;;;8.90;99.90;;;;;;5051523;28;20045;-62
2022/05/03 07:48:15;;;;;;;30.38;18.35;;;9.20;99.90;;;;;;5052979;28;20480;-62
2022/05/03 07:50:41;;;;;;;26.75;14.45;;;9.10;99.90;;;;;;5053039;28;20036;-62
2022/05/03 07:53:06;;;;;;;25.48;14.25;;;9.10;99.90;;;;;;5052749;28;20041;-62
2022/05/03 07:55:32;;;;;;;25.90;14.23;;;9.20;99.90;;;;;;5052638;28;20414;-62
2022/05/03 07:57:57;;;;;;;22.55;12.98;;;9.20;99.90;;;;;;5051421;28;20057;-62
2022/05/03 08:00:23;;;;;;;20.05;11.98;;;9.50;99.90;;;;;;5052757;28;20037;-62
2022/05/03 08:02:49;;;;;;;20.73;11.98;;;9.30;99.90;;;;;;5052675;28;20044;-62
2022/05/03 08:05:16;;;;;;;17.13;10.55;;;9.30;99.90;;;;;;5052690;28;20041;-62
2022/05/03 08:07:42;;;;;;;17.13;10.35;;;9.40;99.90;;;;;;5051385;28;20047;-62
2022/05/03 08:10:08;;;;;;;19.30;9.45;;;9.40;99.90;;;;;;5052610;28;20049;-62
2022/05/03 08:12:34;;;;;;;17.48;8.38;;;9.50;99.90;;;;;;5052330;28;20380;-62
2022/05/03 08:15:00;;;;;;;14.82;8.10;;;9.50;99.90;;;;;;5052313;28;20581;-62
2022/05/03 08:17:27;;;;;;;15.23;6.93;;;9.80;99.90;;;;;;5052799;28;20124;-62
2022/05/03 08:19:53;;;;;;;15.95;7.28;;;9.70;99.90;;;;;;5067914;28;20491;-62
2022/05/03 08:22:18;;;;;;;16.50;7.68;;;9.80;99.90;;;;;;5052435;28;20041;-62
2022/05/03 08:24:44;;;;;;;16.38;6.70;;;9.60;99.90;;;;;;5052552;28;20037;-62
2022/05/03 08:27:10;;;;;;;11.95;6.07;;;9.80;99.90;;;;;;5052541;28;20128;-62
2022/05/03 08:29:35;;;;;;;14.35;7.50;;;9.80;99.90;;;;;;5067799;28;20037;-62
2022/05/03 08:32:01;;;;;;;12.15;6.68;;;9.80;99.90;;;;;;5056166;28;20041;-62
2022/05/03 08:34:28;;;;;;;18.70;7.57;;;10.00;99.90;;;;;;5056289;28;20045;-62
2022/05/03 08:42:22;;;;;;;16.27;6.82;;;10.00;99.90;;;;;;5056192;28;20037;-62
2022/05/03 08:44:47;;;;;;;20.48;6.80;;;9.80;99.90;;;;;;5055792;28;20037;-62
2022/05/03 08:47:17;;;;;;;12.02;6.45;;;10.00;99.90;;;;;;5055983;28;20041;-62
2022/05/03 08:50:04;;;;;;;15.63;6.70;;;10.10;99.90;;;;;;5055945;28;20037;-62
2022/05/03 08:52:44;;;;;;;19.42;7.43;;;10.10;99.90;;;;;;5055740;28;20048;-62
2022/05/03 08:55:14;;;;;;;14.60;6.35;;;10.20;99.90;;;;;;5071449;28;20080;-62
2022/05/03 08:57:42;;;;;;;17.08;7.03;;;10.10;99.90;;;;;;5055723;28;20076;-62
2022/05/03 09:00:09;;;;;;;16.85;7.22;;;10.10;99.90;;;;;;5055504;28;20052;-62
2022/05/03 09:02:44;;;;;;;19.58;7.10;;;10.20;99.90;;;;;;5055705;28;20067;-62
2022/05/03 09:05:11;;;;;;;23.02;7.30;;;10.10;99.90;;;;;;5055831;28;20033;-63
2022/05/03 09:07:37;;;;;;;20.80;7.57;;;10.10;99.90;;;;;;5055581;28;20033;-62
2022/05/03 09:10:16;;;;;;;20.33;7.47;;;10.40;99.90;;;;;;5055452;28;20044;-62
2022/05/03 09:12:44;;;;;;;23.25;8.10;;;10.10;99.90;;;;;;5055286;28;20052;-62
2022/05/03 09:15:10;;;;;;;22.75;7.63;;;10.20;99.90;;;;;;5055068;28;20045;-62
2022/05/03 09:17:40;;;;;;;21.38;8.25;;;10.20;99.90;;;;;;5055556;28;20044;-62
2022/05/03 09:25:49;;;;;;;24.77;7.60;;;10.20;99.90;;;;;;5053905;28;20076;-62
2022/05/03 09:28:14;;;;;;;19.83;6.80;;;10.20;99.90;;;;;;5070611;28;20073;-62
2022/05/03 09:30:51;;;;;;;16.52;6.85;;;10.30;99.90;;;;;;5055170;28;20040;-62
2022/05/03 09:33:21;;;;;;;20.80;6.28;;;10.30;99.90;;;;;;5055161;28;20120;-62
2022/05/03 09:35:49;;;;;;;20.27;6.82;;;10.20;99.90;;;;;;5055026;28;20086;-62
2022/05/03 09:38:15;;;;;;;19.25;6.72;;;10.50;99.90;;;;;;5054836;28;20048;-62
2022/05/03 09:40:43;;;;;;;20.02;6.80;;;10.30;99.90;;;;;;5055191;28;20455;-62
2022/05/03 09:43:10;;;;;;;22.15;6.55;;;10.30;99.90;;;;;;5053738;28;20040;-63
2022/05/03 09:45:36;;;;;;;26.88;7.18;;;10.50;99.90;;;;;;5054734;28;20553;-62
2022/05/03 09:48:02;;;;;;;16.02;6.25;;;10.40;99.90;;;;;;5054755;28;20036;-62
2022/05/03 09:50:40;;;;;;;23.85;6.22;;;10.30;99.90;;;;;;5053422;28;20563;-62
2022/05/03 09:53:09;;;;;;;23.73;7.38;;;10.40;99.90;;;;;;5070096;28;20076;-62
2022/05/03 09:55:37;;;;;;;20.02;6.22;;;10.40;99.90;;;;;;5054890;28;20071;-62
2022/05/03 09:58:08;;;;;;;23.67;6.70;;;10.40;99.90;;;;;;5054555;28;20391;-62
2022/05/03 10:00:35;;;;;;;20.92;6.80;;;10.50;99.90;;;;;;5070111;28;20037;-62
2022/05/03 10:03:02;;;;;;;22.77;5.97;;;10.50;99.90;;;;;;5054363;28;20056;-62
2022/05/03 10:05:28;;;;;;;20.15;6.20;;;10.50;99.90;;;;;;5053293;28;20095;-63
2022/05/03 10:07:54;;;;;;;15.57;5.82;;;10.60;99.90;;;;;;5054667;28;20033;-62
2022/05/03 10:10:24;;;;;;;18.77;6.18;;;10.60;99.90;;;;;;5069656;28;20418;-62
2022/05/03 10:12:50;;;;;;;17.48;5.30;;;10.60;99.90;;;;;;5054182;28;20056;-63
2022/05/03 10:21:21;;;;;;;20.15;5.28;;;10.60;99.90;;;;;;5052771;28;20045;-62
2022/05/03 10:24:08;;;;;;;24.27;6.57;;;10.70;99.90;;;;;;5052716;28;20074;-62
2022/05/03 10:26:52;;;;;;;21.08;5.38;;;10.80;99.90;;;;;;5054106;28;20068;-63
2022/05/03 10:29:19;;;;;;;14.27;5.90;;;10.70;99.90;;;;;;5052701;28;20044;-62
2022/05/03 10:31:55;;;;;;;16.15;6.07;;;10.80;99.90;;;;;;5053883;28;20045;-63
2022/05/03 10:34:42;;;;;;;14.98;4.65;;;11.00;99.90;;;;;;5054110;28;20098;-62
2022/05/03 10:37:10;;;;;;;14.93;4.93;;;11.00;99.90;;;;;;5052564;28;20045;-62
2022/05/03 10:39:53;;;;;;;17.83;4.93;;;11.00;99.90;;;;;;5069441;28;20102;-63
2022/05/03 10:42:22;;;;;;;23.15;4.45;;;11.20;99.90;;;;;;5069059;28;20080;-63
2022/05/03 10:45:01;;;;;;;15.52;5.95;;;11.20;99.90;;;;;;5053647;28;20076;-62
2022/05/03 10:47:41;;;;;;;15.85;4.70;;;11.30;99.90;;;;;;5069361;28;20509;-62
2022/05/03 10:50:12;;;;;;;12.32;5.85;;;11.50;99.90;;;;;;5053855;28;20041;-63
2022/05/03 10:52:42;;;;;;;13.88;4.43;;;11.40;99.90;;;;;;5052007;28;20041;-63
2022/05/03 10:55:09;;;;;;;16.75;4.07;;;11.50;99.90;;;;;;5053396;28;20040;-63
2022/05/03 10:58:11;;;;;;;13.98;3.95;;;11.50;99.90;;;;;;5053392;28;20043;-62
2022/05/03 11:01:09;;;;;;;10.60;3.92;;;11.50;99.90;;;;;;5052428;28;20047;-63
2022/05/03 11:03:48;;;;;;;11.70;3.80;;;11.60;99.90;;;;;;5052156;28;20399;-63
2022/05/03 11:06:19;;;;;;;12.23;3.80;;;11.60;99.90;;;;;;5053470;28;20036;-63
2022/05/03 11:11:47;;;;;;;14.15;4.05;;;11.70;99.90;;;;;;5053120;28;20045;-63
2022/05/03 11:14:16;;;;;;;10.70;3.67;;;11.80;99.90;;;;;;5053292;28;20049;-63
2022/05/03 11:17:11;;;;;;;8.80;3.65;;;11.90;99.90;;;;;;5068496;28;20068;-63
2022/05/03 11:19:39;;;;;;;7.70;3.35;;;12.10;99.90;;;;;;5053121;28;20044;-63
2022/05/03 11:22:13;;;;;;;11.65;4.07;;;12.00;99.90;;;;;;5053080;28;20069;-63
2022/05/03 11:24:47;;;;;;;9.13;3.33;;;12.30;99.90;;;;;;5053036;28;20056;-63
2022/05/03 11:27:14;;;;;;;10.40;3.53;;;12.40;99.90;;;;;;5053018;28;20487;-63
2022/05/03 11:29:46;;;;;;;8.65;3.88;;;12.60;99.90;;;;;;5068699;28;20376;-63
2022/05/03 11:32:14;;;;;;;9.18;3.60;;;12.60;99.90;;;;;;5053110;28;20033;-63
2022/05/03 11:34:39;;;;;;;10.60;3.45;;;12.70;99.90;;;;;;5053018;28;20041;-63
2022/05/03 11:37:07;;;;;;;9.00;3.40;;;12.70;99.90;;;;;;5053169;28;20040;-63
2022/05/03 11:39:33;;;;;;;9.40;3.58;;;12.80;99.90;;;;;;5052774;28;20059;-63
2022/05/03 11:41:58;;;;;;;11.68;3.60;;;12.50;99.90;;;;;;5043729;28;20037;-63
2022/05/03 11:44:27;;;;;;;12.23;4.15;;;13.00;99.90;;;;;;5032787;28;20053;-63
2022/05/03 11:46:53;;;;;;;7.05;2.72;;;12.90;99.90;;;;;;5051169;28;20055;-63
2022/05/03 11:49:20;;;;;;;14.05;4.50;;;12.90;99.90;;;;;;5051558;28;20498;-63
2022/05/03 11:57:24;;;;;;;7.93;3.35;;;13.10;99.90;;;;;;5053079;28;20426;-63
2022/05/03 11:59:51;;;;;;;12.02;3.25;;;12.90;99.90;;;;;;5068431;28;20080;-63
2022/05/03 12:02:36;;;;;;;7.28;3.05;;;13.10;99.90;;;;;;5052799;28;20090;-63
2022/05/03 12:05:04;;;;;;;7.50;3.10;;;13.10;99.90;;;;;;5053194;28;20442;-63
2022/05/03 12:07:50;;;;;;;6.25;2.67;;;13.00;99.90;;;;;;5056525;28;20566;-63
2022/05/03 12:10:19;;;;;;;12.75;3.20;;;13.30;99.90;;;;;;5052652;28;20060;-63
2022/05/03 12:13:02;;;;;;;8.02;2.60;;;13.00;99.90;;;;;;5056465;28;20040;-63
2022/05/03 12:15:28;;;;;;;19.92;3.72;;;13.00;99.90;;;;;;5056609;28;20053;-63
2022/05/03 12:18:00;;;;;;;8.30;2.30;;;13.10;99.90;;;;;;5055289;28;20072;-63
2022/05/03 12:20:57;;;;;;;9.18;4.53;;;13.00;99.90;;;;;;5056709;28;20049;-63
2022/05/03 12:23:41;;;;;;;9.77;4.00;;;13.10;99.90;;;;;;5036660;28;20045;-63
2022/05/03 12:26:25;;;;;;;7.00;2.35;;;12.80;99.90;;;;;;5036601;28;20065;-63
2022/05/03 12:28:53;;;;;;;7.68;2.25;;;13.00;99.90;;;;;;5052183;28;20045;-63
2022/05/03 12:31:21;;;;;;;9.85;2.85;;;13.00;99.90;;;;;;5036597;28;20045;-63
2022/05/03 12:33:52;;;;;;;8.63;3.50;;;13.10;99.90;;;;;;5036025;28;20041;-63
2022/05/03 12:36:28;;;;;;;8.98;2.63;;;13.10;99.90;;;;;;5036447;28;20049;-63
2022/05/03 12:38:54;;;;;;;9.40;2.83;;;13.40;99.90;;;;;;5036173;28;20041;-63
2022/05/03 12:41:30;;;;;;;8.82;2.40;;;13.70;99.90;;;;;;5036157;28;20406;-63
2022/05/03 12:44:05;;;;;;;4.50;2.50;;;13.50;99.90;;;;;;5036034;28;20044;-63
2022/05/03 12:46:31;;;;;;;5.47;2.63;;;13.80;99.90;;;;;;5051092;28;20044;-63
2022/05/03 12:49:00;;;;;;;5.57;2.55;;;13.80;99.90;;;;;;5054639;28;20116;-63
2022/05/03 12:51:26;;;;;;;10.52;2.90;;;13.90;99.90;;;;;;5054722;28;20047;-63
2022/05/03 12:53:51;;;;;;;5.70;1.95;;;13.90;99.90;;;;;;5071212;28;20040;-63
2022/05/03 12:59:01;;;;;;;6.28;2.20;;;13.90;99.90;;;;;;5054465;28;20495;-63
2022/05/03 13:01:27;;;;;;;5.68;2.17;;;14.00;99.90;;;;;;5071090;28;20124;-63
2022/05/03 13:03:54;;;;;;;12.35;3.80;;;14.20;99.90;;;;;;5055633;28;20043;-63
2022/05/03 13:06:20;;;;;;;9.25;2.20;;;14.10;99.90;;;;;;5055532;28;20041;-63
2022/05/03 13:08:45;;;;;;;10.30;2.80;;;14.30;99.90;;;;;;5055548;28;20041;-63
2022/05/03 13:11:12;;;;;;;7.80;2.92;;;14.10;99.90;;;;;;5055484;28;20403;-63
2022/05/03 13:13:38;;;;;;;9.65;2.83;;;14.00;99.90;;;;;;5055549;28;20041;-63
2022/05/03 13:16:04;;;;;;;3.53;1.92;;;14.20;99.90;;;;;;5053798;28;20111;-63
2022/05/03 13:18:30;;;;;;;7.53;2.45;;;13.90;99.90;;;;;;5054183;28;20384;-63
2022/05/03 13:20:56;;;;;;;4.75;2.42;;;13.90;99.90;;;;;;5055610;28;20048;-63
2022/05/03 13:23:21;;;;;;;5.18;2.40;;;13.80;99.90;;;;;;5055186;28;20051;-63
2022/05/03 13:25:47;;;;;;;9.43;2.15;;;14.00;99.90;;;;;;5054021;28;20063;-63
2022/05/03 13:28:13;;;;;;;9.77;2.25;;;14.00;99.90;;;;;;5055050;28;20055;-63
2022/05/03 13:30:40;;;;;;;12.50;2.60;;;13.90;99.90;;;;;;5053893;28;20059;-63
2022/05/03 13:33:06;;;;;;;6.25;2.30;;;14.00;99.90;;;;;;5053643;28;20048;-63
2022/05/03 13:41:00;;;;;;;8.52;1.95;;;14.40;99.90;;;;;;5055200;28;20033;-63
2022/05/03 13:43:29;;;;;;;6.55;2.20;;;14.30;99.90;;;;;;5070004;28;20033;-63
2022/05/03 13:45:55;;;;;;;7.38;2.00;;;14.20;99.90;;;;;;5054914;28;20060;-63
2022/05/03 13:48:20;;;;;;;7.63;1.88;;;14.10;99.90;;;;;;5054865;28;20121;-63
2022/05/03 13:50:46;;;;;;;13.23;1.95;;;14.00;99.90;;;;;;5054766;28;20112;-63
2022/05/03 13:53:12;;;;;;;6.25;2.60;;;14.10;99.90;;;;;;5054603;28;20041;-63
2022/05/03 13:55:38;;;;;;;6.35;2.28;;;13.70;99.90;;;;;;5070317;28;20044;-63
2022/05/03 13:58:09;;;;;;;5.53;2.08;;;13.90;99.90;;;;;;5054150;28;20495;-63
2022/05/03 14:00:35;;;;;;;7.95;2.20;;;14.00;99.90;;;;;;5054603;28;20033;-63
2022/05/03 14:03:02;;;;;;;10.13;2.15;;;14.00;99.90;;;;;;5054959;28;20041;-63
2022/05/03 14:05:28;;;;;;;12.70;2.83;;;14.00;99.90;;;;;;5069890;28;20037;-63
2022/05/03 14:07:54;;;;;;;7.40;2.47;;;14.10;99.90;;;;;;5069892;28;20559;-63
2022/05/03 14:10:20;;;;;;;5.22;2.28;;;;;;;;;;5054461;28;20044;-63
2022/05/03 14:12:46;;;;;;;12.30;2.53;;;14.10;99.90;;;;;;5068625;28;20045;-63